sensor_id;sensor_type;location;lat;lon;timestamp;P1;durP1;ratioP1;P2;durP2;ratioP2
77226;SDS011;66234;47.642;19.144;2023-05-29T00:00:05;8.88;;;4.18;;
77226;SDS011;66234;47.642;19.144;2023-05-29T00:03:11;5.82;;;3.60;;
77226;SDS011;66234;47.642;19.144;2023-05-29T00:06:16;10.93;;;3.67;;
77226;SDS011;66234;47.642;19.144;2023-05-29T00:09:18;5.43;;;3.70;;
77226;SDS011;66234;47.642;19.144;2023-05-29T00:12:21;7.55;;;4.07;;
77226;SDS011;66234;47.642;19.144;2023-05-29T00:15:24;8.43;;;3.72;;
77226;SDS011;66234;47.642;19.144;2023-05-29T00:18:27;7.32;;;3.83;;
77226;SDS011;66234;47.642;19.144;2023-05-29T00:21:30;6.43;;;3.07;;
77226;SDS011;66234;47.642;19.144;2023-05-29T00:24:32;5.80;;;2.77;;
77226;SDS011;66234;47.642;19.144;2023-05-29T00:27:35;11.00;;;3.30;;
77226;SDS011;66234;47.642;19.144;2023-05-29T00:30:38;4.35;;;2.55;;
77226;SDS011;66234;47.642;19.144;2023-05-29T00:33:41;5.97;;;3.20;;
77226;SDS011;66234;47.642;19.144;2023-05-29T00:36:44;9.50;;;3.53;;
77226;SDS011;66234;47.642;19.144;2023-05-29T00:39:47;6.70;;;3.37;;
77226;SDS011;66234;47.642;19.144;2023-05-29T00:42:50;4.38;;;2.70;;
77226;SDS011;66234;47.642;19.144;2023-05-29T00:45:53;5.43;;;3.28;;
77226;SDS011;66234;47.642;19.144;2023-05-29T00:48:57;8.20;;;2.67;;
77226;SDS011;66234;47.642;19.144;2023-05-29T00:52:01;6.13;;;2.60;;
77226;SDS011;66234;47.642;19.144;2023-05-29T00:55:05;11.37;;;3.33;;
77226;SDS011;66234;47.642;19.144;2023-05-29T00:58:08;8.18;;;3.28;;
77226;SDS011;66234;47.642;19.144;2023-05-29T01:01:11;5.78;;;2.70;;
77226;SDS011;66234;47.642;19.144;2023-05-29T01:04:14;8.15;;;2.88;;
77226;SDS011;66234;47.642;19.144;2023-05-29T01:07:17;3.77;;;2.53;;
77226;SDS011;66234;47.642;19.144;2023-05-29T01:10:20;8.23;;;2.83;;
77226;SDS011;66234;47.642;19.144;2023-05-29T01:13:25;5.95;;;2.90;;
77226;SDS011;66234;47.642;19.144;2023-05-29T01:16:38;7.35;;;3.35;;
77226;SDS011;66234;47.642;19.144;2023-05-29T01:20:14;7.35;;;3.00;;
77226;SDS011;66234;47.642;19.144;2023-05-29T01:26:58;4.97;;;3.10;;
77226;SDS011;66234;47.642;19.144;2023-05-29T01:30:04;6.90;;;3.38;;
77226;SDS011;66234;47.642;19.144;2023-05-29T01:33:09;4.85;;;3.03;;
77226;SDS011;66234;47.642;19.144;2023-05-29T01:36:12;4.85;;;3.08;;
77226;SDS011;66234;47.642;19.144;2023-05-29T01:39:15;5.47;;;3.40;;
77226;SDS011;66234;47.642;19.144;2023-05-29T01:42:19;6.03;;;3.60;;
77226;SDS011;66234;47.642;19.144;2023-05-29T01:45:22;7.38;;;3.28;;
77226;SDS011;66234;47.642;19.144;2023-05-29T01:48:26;6.50;;;3.17;;
77226;SDS011;66234;47.642;19.144;2023-05-29T01:51:31;7.47;;;3.53;;
77226;SDS011;66234;47.642;19.144;2023-05-29T01:54:33;5.77;;;3.40;;
77226;SDS011;66234;47.642;19.144;2023-05-29T01:57:36;7.57;;;3.33;;
77226;SDS011;66234;47.642;19.144;2023-05-29T02:00:40;7.07;;;3.40;;
77226;SDS011;66234;47.642;19.144;2023-05-29T02:03:42;5.20;;;3.17;;
77226;SDS011;66234;47.642;19.144;2023-05-29T02:06:45;5.85;;;3.00;;
77226;SDS011;66234;47.642;19.144;2023-05-29T02:09:47;9.47;;;3.53;;
77226;SDS011;66234;47.642;19.144;2023-05-29T02:12:51;7.07;;;3.27;;
77226;SDS011;66234;47.642;19.144;2023-05-29T02:15:53;7.85;;;3.10;;
77226;SDS011;66234;47.642;19.144;2023-05-29T02:18:57;8.48;;;3.67;;
77226;SDS011;66234;47.642;19.144;2023-05-29T02:22:00;5.18;;;2.85;;
77226;SDS011;66234;47.642;19.144;2023-05-29T02:25:03;6.03;;;3.13;;
77226;SDS011;66234;47.642;19.144;2023-05-29T02:28:08;7.00;;;3.50;;
77226;SDS011;66234;47.642;19.144;2023-05-29T02:31:10;5.85;;;3.25;;
77226;SDS011;66234;47.642;19.144;2023-05-29T02:34:13;7.05;;;3.53;;
77226;SDS011;66234;47.642;19.144;2023-05-29T02:37:16;8.70;;;3.63;;
77226;SDS011;66234;47.642;19.144;2023-05-29T02:40:19;8.77;;;3.03;;
77226;SDS011;66234;47.642;19.144;2023-05-29T02:43:23;8.57;;;3.70;;
77226;SDS011;66234;47.642;19.144;2023-05-29T02:46:25;6.00;;;3.45;;
77226;SDS011;66234;47.642;19.144;2023-05-29T02:49:28;5.70;;;2.85;;
77226;SDS011;66234;47.642;19.144;2023-05-29T02:52:32;5.97;;;3.42;;
77226;SDS011;66234;47.642;19.144;2023-05-29T02:55:34;9.77;;;3.50;;
77226;SDS011;66234;47.642;19.144;2023-05-29T02:58:38;5.13;;;3.07;;
77226;SDS011;66234;47.642;19.144;2023-05-29T03:01:40;6.68;;;3.75;;
77226;SDS011;66234;47.642;19.144;2023-05-29T03:04:46;6.13;;;3.15;;
77226;SDS011;66234;47.642;19.144;2023-05-29T03:07:52;7.00;;;3.08;;
77226;SDS011;66234;47.642;19.144;2023-05-29T03:10:54;6.73;;;3.07;;
77226;SDS011;66234;47.642;19.144;2023-05-29T03:13:59;5.73;;;3.10;;
77226;SDS011;66234;47.642;19.144;2023-05-29T03:17:05;5.93;;;3.60;;
77226;SDS011;66234;47.642;19.144;2023-05-29T03:20:09;6.90;;;3.75;;
77226;SDS011;66234;47.642;19.144;2023-05-29T03:23:13;5.07;;;3.10;;
77226;SDS011;66234;47.642;19.144;2023-05-29T03:26:16;8.47;;;3.17;;
77226;SDS011;66234;47.642;19.144;2023-05-29T03:29:19;6.77;;;2.83;;
77226;SDS011;66234;47.642;19.144;2023-05-29T03:32:22;5.80;;;3.15;;
77226;SDS011;66234;47.642;19.144;2023-05-29T03:35:24;6.00;;;3.38;;
77226;SDS011;66234;47.642;19.144;2023-05-29T03:38:27;8.02;;;3.60;;
77226;SDS011;66234;47.642;19.144;2023-05-29T03:41:33;7.53;;;3.90;;
77226;SDS011;66234;47.642;19.144;2023-05-29T03:44:36;8.00;;;3.67;;
77226;SDS011;66234;47.642;19.144;2023-05-29T03:47:40;9.60;;;3.40;;
77226;SDS011;66234;47.642;19.144;2023-05-29T03:50:44;7.93;;;3.15;;
77226;SDS011;66234;47.642;19.144;2023-05-29T03:53:49;7.03;;;3.85;;
77226;SDS011;66234;47.642;19.144;2023-05-29T03:56:53;5.50;;;2.97;;
77226;SDS011;66234;47.642;19.144;2023-05-29T03:59:59;9.17;;;3.67;;
77226;SDS011;66234;47.642;19.144;2023-05-29T04:03:02;8.10;;;3.53;;
77226;SDS011;66234;47.642;19.144;2023-05-29T04:06:06;6.20;;;3.17;;
77226;SDS011;66234;47.642;19.144;2023-05-29T04:09:09;8.77;;;3.58;;
77226;SDS011;66234;47.642;19.144;2023-05-29T04:12:12;7.33;;;3.80;;
77226;SDS011;66234;47.642;19.144;2023-05-29T04:15:15;6.53;;;3.33;;
77226;SDS011;66234;47.642;19.144;2023-05-29T04:18:19;7.72;;;3.47;;
77226;SDS011;66234;47.642;19.144;2023-05-29T04:21:23;6.35;;;3.08;;
77226;SDS011;66234;47.642;19.144;2023-05-29T04:24:27;8.40;;;3.75;;
77226;SDS011;66234;47.642;19.144;2023-05-29T04:27:30;5.10;;;2.90;;
77226;SDS011;66234;47.642;19.144;2023-05-29T04:30:35;7.77;;;3.83;;
77226;SDS011;66234;47.642;19.144;2023-05-29T04:33:38;8.85;;;3.47;;
77226;SDS011;66234;47.642;19.144;2023-05-29T04:36:41;6.15;;;3.22;;
77226;SDS011;66234;47.642;19.144;2023-05-29T04:39:47;6.97;;;3.17;;
77226;SDS011;66234;47.642;19.144;2023-05-29T04:42:57;6.43;;;3.37;;
77226;SDS011;66234;47.642;19.144;2023-05-29T04:46:06;6.37;;;3.27;;
77226;SDS011;66234;47.642;19.144;2023-05-29T04:49:12;6.93;;;3.33;;
77226;SDS011;66234;47.642;19.144;2023-05-29T04:52:16;6.00;;;3.50;;
77226;SDS011;66234;47.642;19.144;2023-05-29T04:55:18;11.48;;;2.80;;
77226;SDS011;66234;47.642;19.144;2023-05-29T04:58:21;7.13;;;2.47;;
77226;SDS011;66234;47.642;19.144;2023-05-29T05:01:25;5.37;;;2.83;;
77226;SDS011;66234;47.642;19.144;2023-05-29T05:04:28;6.28;;;3.25;;
77226;SDS011;66234;47.642;19.144;2023-05-29T05:07:31;6.28;;;3.00;;
77226;SDS011;66234;47.642;19.144;2023-05-29T05:10:34;6.63;;;2.90;;
77226;SDS011;66234;47.642;19.144;2023-05-29T05:13:36;6.13;;;3.40;;
77226;SDS011;66234;47.642;19.144;2023-05-29T05:16:40;5.70;;;2.97;;
77226;SDS011;66234;47.642;19.144;2023-05-29T05:19:45;5.38;;;3.20;;
77226;SDS011;66234;47.642;19.144;2023-05-29T05:22:47;5.07;;;2.78;;
77226;SDS011;66234;47.642;19.144;2023-05-29T05:25:50;6.78;;;3.17;;
77226;SDS011;66234;47.642;19.144;2023-05-29T05:28:53;5.13;;;3.17;;
77226;SDS011;66234;47.642;19.144;2023-05-29T05:31:57;5.97;;;3.07;;
77226;SDS011;66234;47.642;19.144;2023-05-29T05:35:00;7.78;;;3.00;;
77226;SDS011;66234;47.642;19.144;2023-05-29T05:38:03;6.53;;;3.13;;
77226;SDS011;66234;47.642;19.144;2023-05-29T05:41:06;4.90;;;3.30;;
77226;SDS011;66234;47.642;19.144;2023-05-29T05:44:09;5.93;;;3.50;;
77226;SDS011;66234;47.642;19.144;2023-05-29T05:47:34;5.97;;;3.10;;
77226;SDS011;66234;47.642;19.144;2023-05-29T05:50:36;6.70;;;3.22;;
77226;SDS011;66234;47.642;19.144;2023-05-29T05:53:39;7.45;;;3.75;;
77226;SDS011;66234;47.642;19.144;2023-05-29T05:56:42;5.90;;;3.58;;
77226;SDS011;66234;47.642;19.144;2023-05-29T05:59:48;6.07;;;3.37;;
77226;SDS011;66234;47.642;19.144;2023-05-29T06:02:51;9.17;;;3.30;;
77226;SDS011;66234;47.642;19.144;2023-05-29T06:06:06;5.57;;;3.38;;
77226;SDS011;66234;47.642;19.144;2023-05-29T06:09:11;7.85;;;3.55;;
77226;SDS011;66234;47.642;19.144;2023-05-29T06:12:14;4.90;;;3.05;;
77226;SDS011;66234;47.642;19.144;2023-05-29T06:15:28;7.97;;;3.47;;
77226;SDS011;66234;47.642;19.144;2023-05-29T06:18:30;5.87;;;3.13;;
77226;SDS011;66234;47.642;19.144;2023-05-29T06:21:33;6.00;;;2.95;;
77226;SDS011;66234;47.642;19.144;2023-05-29T06:24:37;6.28;;;3.28;;
77226;SDS011;66234;47.642;19.144;2023-05-29T06:27:42;4.50;;;2.72;;
77226;SDS011;66234;47.642;19.144;2023-05-29T06:30:44;10.57;;;3.13;;
77226;SDS011;66234;47.642;19.144;2023-05-29T06:33:48;6.13;;;3.40;;
77226;SDS011;66234;47.642;19.144;2023-05-29T06:36:50;5.90;;;3.53;;
77226;SDS011;66234;47.642;19.144;2023-05-29T06:39:53;6.85;;;3.35;;
77226;SDS011;66234;47.642;19.144;2023-05-29T06:42:55;6.97;;;2.88;;
77226;SDS011;66234;47.642;19.144;2023-05-29T06:46:12;6.13;;;3.70;;
77226;SDS011;66234;47.642;19.144;2023-05-29T06:49:15;7.87;;;4.07;;
77226;SDS011;66234;47.642;19.144;2023-05-29T06:52:17;6.72;;;3.60;;
77226;SDS011;66234;47.642;19.144;2023-05-29T06:55:58;6.78;;;3.08;;
77226;SDS011;66234;47.642;19.144;2023-05-29T06:59:02;6.32;;;3.38;;
77226;SDS011;66234;47.642;19.144;2023-05-29T07:02:06;8.07;;;3.60;;
77226;SDS011;66234;47.642;19.144;2023-05-29T07:05:09;4.90;;;3.30;;
77226;SDS011;66234;47.642;19.144;2023-05-29T07:08:12;7.03;;;3.65;;
77226;SDS011;66234;47.642;19.144;2023-05-29T07:11:15;8.90;;;3.63;;
77226;SDS011;66234;47.642;19.144;2023-05-29T07:14:17;6.65;;;3.47;;
77226;SDS011;66234;47.642;19.144;2023-05-29T07:17:20;5.90;;;3.63;;
77226;SDS011;66234;47.642;19.144;2023-05-29T07:20:36;6.43;;;3.80;;
77226;SDS011;66234;47.642;19.144;2023-05-29T07:23:40;8.07;;;4.00;;
77226;SDS011;66234;47.642;19.144;2023-05-29T07:26:45;5.60;;;3.42;;
77226;SDS011;66234;47.642;19.144;2023-05-29T07:29:47;6.22;;;3.17;;
77226;SDS011;66234;47.642;19.144;2023-05-29T07:32:50;9.17;;;4.07;;
77226;SDS011;66234;47.642;19.144;2023-05-29T07:35:53;6.60;;;3.20;;
77226;SDS011;66234;47.642;19.144;2023-05-29T07:38:56;5.05;;;3.38;;
77226;SDS011;66234;47.642;19.144;2023-05-29T07:42:01;7.30;;;3.47;;
77226;SDS011;66234;47.642;19.144;2023-05-29T07:45:04;5.50;;;3.50;;
77226;SDS011;66234;47.642;19.144;2023-05-29T07:48:07;5.27;;;3.57;;
77226;SDS011;66234;47.642;19.144;2023-05-29T07:51:10;3.77;;;3.20;;
77226;SDS011;66234;47.642;19.144;2023-05-29T07:54:15;9.68;;;3.95;;
77226;SDS011;66234;47.642;19.144;2023-05-29T07:57:20;9.13;;;3.78;;
77226;SDS011;66234;47.642;19.144;2023-05-29T08:00:25;7.72;;;3.78;;
77226;SDS011;66234;47.642;19.144;2023-05-29T08:03:28;5.33;;;3.50;;
77226;SDS011;66234;47.642;19.144;2023-05-29T08:06:49;6.23;;;3.70;;
77226;SDS011;66234;47.642;19.144;2023-05-29T08:09:53;8.73;;;3.58;;
77226;SDS011;66234;47.642;19.144;2023-05-29T08:12:55;6.90;;;3.80;;
77226;SDS011;66234;47.642;19.144;2023-05-29T08:15:58;6.95;;;3.67;;
77226;SDS011;66234;47.642;19.144;2023-05-29T08:19:01;6.73;;;3.93;;
77226;SDS011;66234;47.642;19.144;2023-05-29T08:22:03;4.83;;;3.93;;
77226;SDS011;66234;47.642;19.144;2023-05-29T08:25:06;10.43;;;4.47;;
77226;SDS011;66234;47.642;19.144;2023-05-29T08:28:10;7.85;;;3.53;;
77226;SDS011;66234;47.642;19.144;2023-05-29T08:31:13;8.13;;;3.83;;
77226;SDS011;66234;47.642;19.144;2023-05-29T08:34:15;6.80;;;4.17;;
77226;SDS011;66234;47.642;19.144;2023-05-29T08:37:18;8.87;;;4.40;;
77226;SDS011;66234;47.642;19.144;2023-05-29T08:40:21;9.05;;;4.38;;
77226;SDS011;66234;47.642;19.144;2023-05-29T08:43:24;7.18;;;4.72;;
77226;SDS011;66234;47.642;19.144;2023-05-29T08:46:32;6.03;;;3.60;;
77226;SDS011;66234;47.642;19.144;2023-05-29T08:49:42;6.00;;;3.70;;
77226;SDS011;66234;47.642;19.144;2023-05-29T08:52:45;5.80;;;3.80;;
77226;SDS011;66234;47.642;19.144;2023-05-29T08:55:48;8.90;;;4.03;;
77226;SDS011;66234;47.642;19.144;2023-05-29T08:58:55;5.82;;;3.58;;
77226;SDS011;66234;47.642;19.144;2023-05-29T09:01:59;8.63;;;3.90;;
77226;SDS011;66234;47.642;19.144;2023-05-29T09:05:02;4.90;;;3.60;;
77226;SDS011;66234;47.642;19.144;2023-05-29T09:08:09;7.80;;;4.50;;
77226;SDS011;66234;47.642;19.144;2023-05-29T09:11:14;5.70;;;4.50;;
77226;SDS011;66234;47.642;19.144;2023-05-29T09:14:33;6.78;;;4.40;;
77226;SDS011;66234;47.642;19.144;2023-05-29T09:17:38;6.68;;;4.20;;
77226;SDS011;66234;47.642;19.144;2023-05-29T09:20:41;6.97;;;4.27;;
77226;SDS011;66234;47.642;19.144;2023-05-29T09:23:43;6.27;;;4.37;;
77226;SDS011;66234;47.642;19.144;2023-05-29T09:26:49;6.68;;;4.30;;
77226;SDS011;66234;47.642;19.144;2023-05-29T09:29:52;7.38;;;4.35;;
77226;SDS011;66234;47.642;19.144;2023-05-29T09:32:55;6.00;;;4.10;;
77226;SDS011;66234;47.642;19.144;2023-05-29T09:35:58;5.80;;;4.13;;
77226;SDS011;66234;47.642;19.144;2023-05-29T09:39:02;6.27;;;4.53;;
77226;SDS011;66234;47.642;19.144;2023-05-29T09:42:18;8.00;;;5.22;;
77226;SDS011;66234;47.642;19.144;2023-05-29T09:45:21;9.10;;;4.30;;
77226;SDS011;66234;47.642;19.144;2023-05-29T09:48:24;8.18;;;5.20;;
77226;SDS011;66234;47.642;19.144;2023-05-29T09:51:28;5.43;;;4.40;;
77226;SDS011;66234;47.642;19.144;2023-05-29T09:54:31;6.27;;;4.33;;
77226;SDS011;66234;47.642;19.144;2023-05-29T09:57:34;7.68;;;4.38;;
77226;SDS011;66234;47.642;19.144;2023-05-29T10:00:38;11.88;;;4.72;;
77226;SDS011;66234;47.642;19.144;2023-05-29T10:03:43;7.03;;;4.30;;
77226;SDS011;66234;47.642;19.144;2023-05-29T10:06:46;4.90;;;3.97;;
77226;SDS011;66234;47.642;19.144;2023-05-29T10:09:52;4.77;;;4.27;;
77226;SDS011;66234;47.642;19.144;2023-05-29T10:13:02;8.07;;;4.50;;
77226;SDS011;66234;47.642;19.144;2023-05-29T10:16:07;8.95;;;4.07;;
77226;SDS011;66234;47.642;19.144;2023-05-29T10:19:13;7.03;;;4.82;;
77226;SDS011;66234;47.642;19.144;2023-05-29T10:22:22;6.57;;;4.40;;
77226;SDS011;66234;47.642;19.144;2023-05-29T10:25:27;5.90;;;3.90;;
77226;SDS011;66234;47.642;19.144;2023-05-29T10:28:33;8.18;;;4.40;;
77226;SDS011;66234;47.642;19.144;2023-05-29T10:35:14;7.40;;;4.20;;
77226;SDS011;66234;47.642;19.144;2023-05-29T10:38:23;8.27;;;4.37;;
77226;SDS011;66234;47.642;19.144;2023-05-29T10:47:55;7.10;;;3.72;;
77226;SDS011;66234;47.642;19.144;2023-05-29T10:51:28;8.40;;;4.68;;
77226;SDS011;66234;47.642;19.144;2023-05-29T10:54:40;8.53;;;4.93;;
77226;SDS011;66234;47.642;19.144;2023-05-29T10:57:51;10.13;;;4.80;;
77226;SDS011;66234;47.642;19.144;2023-05-29T11:00:54;8.70;;;4.60;;
77226;SDS011;66234;47.642;19.144;2023-05-29T11:07:31;8.30;;;4.85;;
77226;SDS011;66234;47.642;19.144;2023-05-29T11:10:55;7.47;;;4.07;;
77226;SDS011;66234;47.642;19.144;2023-05-29T11:14:05;5.90;;;4.80;;
77226;SDS011;66234;47.642;19.144;2023-05-29T11:17:09;6.93;;;4.32;;
77226;SDS011;66234;47.642;19.144;2023-05-29T11:20:53;7.68;;;4.60;;
77226;SDS011;66234;47.642;19.144;2023-05-29T11:24:00;8.07;;;4.50;;
77226;SDS011;66234;47.642;19.144;2023-05-29T11:27:09;7.13;;;4.33;;
77226;SDS011;66234;47.642;19.144;2023-05-29T11:30:14;8.40;;;4.73;;
77226;SDS011;66234;47.642;19.144;2023-05-29T11:33:22;6.10;;;4.40;;
77226;SDS011;66234;47.642;19.144;2023-05-29T11:36:27;7.63;;;4.72;;
77226;SDS011;66234;47.642;19.144;2023-05-29T11:39:30;7.03;;;4.60;;
77226;SDS011;66234;47.642;19.144;2023-05-29T11:42:36;7.50;;;4.50;;
77226;SDS011;66234;47.642;19.144;2023-05-29T11:45:46;5.70;;;4.40;;
77226;SDS011;66234;47.642;19.144;2023-05-29T11:48:48;7.78;;;4.90;;
77226;SDS011;66234;47.642;19.144;2023-05-29T11:51:51;7.47;;;4.40;;
77226;SDS011;66234;47.642;19.144;2023-05-29T11:55:05;10.88;;;5.18;;
77226;SDS011;66234;47.642;19.144;2023-05-29T11:58:08;8.63;;;4.77;;
77226;SDS011;66234;47.642;19.144;2023-05-29T12:01:11;10.07;;;5.20;;
77226;SDS011;66234;47.642;19.144;2023-05-29T12:04:30;6.40;;;4.30;;
77226;SDS011;66234;47.642;19.144;2023-05-29T12:07:32;6.78;;;4.57;;
77226;SDS011;66234;47.642;19.144;2023-05-29T12:10:35;6.80;;;5.05;;
77226;SDS011;66234;47.642;19.144;2023-05-29T12:13:38;10.25;;;5.10;;
77226;SDS011;66234;47.642;19.144;2023-05-29T12:16:40;7.23;;;4.77;;
77226;SDS011;66234;47.642;19.144;2023-05-29T12:19:46;10.30;;;5.57;;
77226;SDS011;66234;47.642;19.144;2023-05-29T12:22:49;9.55;;;5.43;;
77226;SDS011;66234;47.642;19.144;2023-05-29T12:25:52;7.93;;;4.78;;
77226;SDS011;66234;47.642;19.144;2023-05-29T12:28:55;6.00;;;5.10;;
77226;SDS011;66234;47.642;19.144;2023-05-29T12:31:58;6.73;;;5.77;;
77226;SDS011;66234;47.642;19.144;2023-05-29T12:35:09;9.27;;;5.88;;
77226;SDS011;66234;47.642;19.144;2023-05-29T12:38:18;11.88;;;5.18;;
77226;SDS011;66234;47.642;19.144;2023-05-29T12:41:33;8.25;;;5.47;;
77226;SDS011;66234;47.642;19.144;2023-05-29T12:44:37;7.38;;;5.43;;
77226;SDS011;66234;47.642;19.144;2023-05-29T12:50:49;5.53;;;5.03;;
77226;SDS011;66234;47.642;19.144;2023-05-29T12:53:51;6.18;;;4.88;;
77226;SDS011;66234;47.642;19.144;2023-05-29T12:56:56;6.18;;;5.40;;
77226;SDS011;66234;47.642;19.144;2023-05-29T12:59:59;8.35;;;5.85;;
77226;SDS011;66234;47.642;19.144;2023-05-29T13:03:03;7.00;;;5.77;;
77226;SDS011;66234;47.642;19.144;2023-05-29T13:06:06;6.05;;;5.45;;
77226;SDS011;66234;47.642;19.144;2023-05-29T13:09:09;6.63;;;5.90;;
77226;SDS011;66234;47.642;19.144;2023-05-29T13:12:13;6.50;;;5.72;;
77226;SDS011;66234;47.642;19.144;2023-05-29T13:15:15;8.30;;;6.10;;
77226;SDS011;66234;47.642;19.144;2023-05-29T13:18:18;7.53;;;5.70;;
77226;SDS011;66234;47.642;19.144;2023-05-29T13:21:20;6.93;;;5.70;;
77226;SDS011;66234;47.642;19.144;2023-05-29T13:24:23;8.32;;;5.57;;
77226;SDS011;66234;47.642;19.144;2023-05-29T13:32:04;8.15;;;5.40;;
77226;SDS011;66234;47.642;19.144;2023-05-29T13:35:08;9.47;;;4.87;;
77226;SDS011;66234;47.642;19.144;2023-05-29T13:38:11;6.72;;;4.85;;
77226;SDS011;66234;47.642;19.144;2023-05-29T13:41:13;10.40;;;5.30;;
77226;SDS011;66234;47.642;19.144;2023-05-29T13:44:16;7.38;;;5.32;;
77226;SDS011;66234;47.642;19.144;2023-05-29T13:47:18;10.98;;;5.50;;
77226;SDS011;66234;47.642;19.144;2023-05-29T13:50:21;11.97;;;4.87;;
77226;SDS011;66234;47.642;19.144;2023-05-29T13:53:25;7.28;;;4.50;;
77226;SDS011;66234;47.642;19.144;2023-05-29T13:56:28;9.73;;;5.60;;
77226;SDS011;66234;47.642;19.144;2023-05-29T13:59:31;7.88;;;5.15;;
77226;SDS011;66234;47.642;19.144;2023-05-29T14:02:34;9.00;;;5.50;;
77226;SDS011;66234;47.642;19.144;2023-05-29T14:05:40;8.63;;;5.63;;
77226;SDS011;66234;47.642;19.144;2023-05-29T14:08:43;10.23;;;5.90;;
77226;SDS011;66234;47.642;19.144;2023-05-29T14:11:46;10.55;;;6.28;;
77226;SDS011;66234;47.642;19.144;2023-05-29T14:14:48;9.35;;;6.00;;
77226;SDS011;66234;47.642;19.144;2023-05-29T14:17:51;8.40;;;6.18;;
77226;SDS011;66234;47.642;19.144;2023-05-29T14:20:53;9.27;;;6.03;;
77226;SDS011;66234;47.642;19.144;2023-05-29T14:23:56;7.78;;;6.20;;
77226;SDS011;66234;47.642;19.144;2023-05-29T14:26:59;8.45;;;5.70;;
77226;SDS011;66234;47.642;19.144;2023-05-29T14:30:02;7.30;;;5.70;;
77226;SDS011;66234;47.642;19.144;2023-05-29T14:33:05;12.32;;;5.90;;
77226;SDS011;66234;47.642;19.144;2023-05-29T14:36:08;12.13;;;5.90;;
77226;SDS011;66234;47.642;19.144;2023-05-29T14:39:11;8.98;;;6.15;;
77226;SDS011;66234;47.642;19.144;2023-05-29T14:42:14;9.65;;;5.95;;
77226;SDS011;66234;47.642;19.144;2023-05-29T14:45:18;8.60;;;5.78;;
77226;SDS011;66234;47.642;19.144;2023-05-29T14:48:20;8.47;;;5.87;;
77226;SDS011;66234;47.642;19.144;2023-05-29T14:51:23;9.07;;;5.93;;
77226;SDS011;66234;47.642;19.144;2023-05-29T14:54:26;10.57;;;6.50;;
77226;SDS011;66234;47.642;19.144;2023-05-29T14:57:30;7.15;;;5.82;;
77226;SDS011;66234;47.642;19.144;2023-05-29T15:00:35;8.60;;;5.80;;
77226;SDS011;66234;47.642;19.144;2023-05-29T15:03:38;7.90;;;6.23;;
77226;SDS011;66234;47.642;19.144;2023-05-29T15:06:40;8.87;;;5.33;;
77226;SDS011;66234;47.642;19.144;2023-05-29T15:09:44;11.48;;;5.88;;
77226;SDS011;66234;47.642;19.144;2023-05-29T15:12:47;8.55;;;5.38;;
77226;SDS011;66234;47.642;19.144;2023-05-29T15:15:49;7.90;;;5.32;;
77226;SDS011;66234;47.642;19.144;2023-05-29T15:18:52;7.47;;;5.40;;
77226;SDS011;66234;47.642;19.144;2023-05-29T15:21:55;9.73;;;6.10;;
77226;SDS011;66234;47.642;19.144;2023-05-29T15:24:57;7.85;;;5.70;;
77226;SDS011;66234;47.642;19.144;2023-05-29T15:28:00;8.63;;;5.68;;
77226;SDS011;66234;47.642;19.144;2023-05-29T15:31:03;8.75;;;6.10;;
77226;SDS011;66234;47.642;19.144;2023-05-29T15:34:06;9.60;;;6.13;;
77226;SDS011;66234;47.642;19.144;2023-05-29T15:37:08;9.30;;;6.20;;
77226;SDS011;66234;47.642;19.144;2023-05-29T15:40:11;9.90;;;6.75;;
77226;SDS011;66234;47.642;19.144;2023-05-29T15:43:13;9.50;;;7.00;;
77226;SDS011;66234;47.642;19.144;2023-05-29T15:46:16;10.65;;;6.75;;
77226;SDS011;66234;47.642;19.144;2023-05-29T15:49:19;11.70;;;6.87;;
77226;SDS011;66234;47.642;19.144;2023-05-29T15:52:21;11.47;;;6.57;;
77226;SDS011;66234;47.642;19.144;2023-05-29T15:55:24;8.50;;;5.90;;
77226;SDS011;66234;47.642;19.144;2023-05-29T15:58:26;9.10;;;6.78;;
77226;SDS011;66234;47.642;19.144;2023-05-29T16:01:29;8.68;;;6.63;;
77226;SDS011;66234;47.642;19.144;2023-05-29T16:04:32;9.95;;;6.45;;
77226;SDS011;66234;47.642;19.144;2023-05-29T16:07:35;8.97;;;6.93;;
77226;SDS011;66234;47.642;19.144;2023-05-29T16:10:39;8.20;;;7.28;;
77226;SDS011;66234;47.642;19.144;2023-05-29T16:13:43;7.82;;;6.40;;
77226;SDS011;66234;47.642;19.144;2023-05-29T16:16:45;10.43;;;6.80;;
77226;SDS011;66234;47.642;19.144;2023-05-29T16:19:48;8.45;;;6.60;;
77226;SDS011;66234;47.642;19.144;2023-05-29T16:22:51;7.13;;;5.97;;
77226;SDS011;66234;47.642;19.144;2023-05-29T16:25:53;7.05;;;6.20;;
77226;SDS011;66234;47.642;19.144;2023-05-29T16:28:58;7.80;;;6.07;;
77226;SDS011;66234;47.642;19.144;2023-05-29T16:32:02;8.68;;;6.30;;
77226;SDS011;66234;47.642;19.144;2023-05-29T16:35:04;7.80;;;6.20;;
77226;SDS011;66234;47.642;19.144;2023-05-29T16:38:07;11.10;;;6.23;;
77226;SDS011;66234;47.642;19.144;2023-05-29T16:41:10;8.00;;;5.80;;
77226;SDS011;66234;47.642;19.144;2023-05-29T16:44:13;7.93;;;6.43;;
77226;SDS011;66234;47.642;19.144;2023-05-29T16:47:16;10.48;;;6.13;;
77226;SDS011;66234;47.642;19.144;2023-05-29T16:50:18;8.57;;;6.15;;
77226;SDS011;66234;47.642;19.144;2023-05-29T16:53:25;7.43;;;6.20;;
77226;SDS011;66234;47.642;19.144;2023-05-29T16:56:28;6.88;;;6.10;;
77226;SDS011;66234;47.642;19.144;2023-05-29T16:59:30;7.53;;;6.20;;
77226;SDS011;66234;47.642;19.144;2023-05-29T17:02:33;8.00;;;5.82;;
77226;SDS011;66234;47.642;19.144;2023-05-29T17:05:35;7.70;;;6.03;;
77226;SDS011;66234;47.642;19.144;2023-05-29T17:08:38;6.43;;;5.67;;
77226;SDS011;66234;47.642;19.144;2023-05-29T17:11:41;8.82;;;6.00;;
77226;SDS011;66234;47.642;19.144;2023-05-29T17:14:43;6.30;;;5.47;;
77226;SDS011;66234;47.642;19.144;2023-05-29T17:17:46;7.93;;;6.00;;
77226;SDS011;66234;47.642;19.144;2023-05-29T17:20:49;8.52;;;6.10;;
77226;SDS011;66234;47.642;19.144;2023-05-29T17:23:51;7.13;;;5.53;;
77226;SDS011;66234;47.642;19.144;2023-05-29T17:26:57;8.52;;;6.28;;
77226;SDS011;66234;47.642;19.144;2023-05-29T17:29:59;8.25;;;5.35;;
77226;SDS011;66234;47.642;19.144;2023-05-29T17:33:02;7.60;;;5.30;;
77226;SDS011;66234;47.642;19.144;2023-05-29T17:36:05;9.20;;;5.90;;
77226;SDS011;66234;47.642;19.144;2023-05-29T17:39:08;7.33;;;5.63;;
77226;SDS011;66234;47.642;19.144;2023-05-29T17:42:12;9.20;;;5.78;;
77226;SDS011;66234;47.642;19.144;2023-05-29T17:45:14;9.40;;;5.70;;
77226;SDS011;66234;47.642;19.144;2023-05-29T17:48:18;8.30;;;5.85;;
77226;SDS011;66234;47.642;19.144;2023-05-29T17:51:22;11.23;;;5.80;;
77226;SDS011;66234;47.642;19.144;2023-05-29T17:54:26;9.60;;;5.63;;
77226;SDS011;66234;47.642;19.144;2023-05-29T17:57:29;6.38;;;5.28;;
77226;SDS011;66234;47.642;19.144;2023-05-29T18:00:31;10.15;;;6.07;;
77226;SDS011;66234;47.642;19.144;2023-05-29T18:03:34;6.30;;;4.97;;
77226;SDS011;66234;47.642;19.144;2023-05-29T18:06:38;8.30;;;5.40;;
77226;SDS011;66234;47.642;19.144;2023-05-29T18:09:41;7.47;;;5.40;;
77226;SDS011;66234;47.642;19.144;2023-05-29T18:12:44;8.48;;;5.85;;
77226;SDS011;66234;47.642;19.144;2023-05-29T18:15:47;36.72;;;20.73;;
77226;SDS011;66234;47.642;19.144;2023-05-29T18:18:49;31.98;;;18.65;;
77226;SDS011;66234;47.642;19.144;2023-05-29T18:21:52;32.73;;;19.63;;
77226;SDS011;66234;47.642;19.144;2023-05-29T18:24:55;33.90;;;20.43;;
77226;SDS011;66234;47.642;19.144;2023-05-29T18:27:57;18.10;;;11.80;;
77226;SDS011;66234;47.642;19.144;2023-05-29T18:31:00;16.67;;;8.65;;
77226;SDS011;66234;47.642;19.144;2023-05-29T18:34:03;17.73;;;8.77;;
77226;SDS011;66234;47.642;19.144;2023-05-29T18:37:06;12.70;;;7.80;;